Hawthorne, Nevada
Current Conditions -  °F | °C
As of 6:52 AM on Wednesday 26 Nov 2014 (Local Time) from KBAN Reporting Station
Clear Clear  
Wind Chill: 22°   Ceiling: Unl
Heat Index: 22°   Visibility: NA
Dew Point: 16°   Wind: 0mph
Humidity: 78%   Direction: NA
Pressure: 30.53"   Gusts: NA
Location:  38.52°N, 118.63°W
Report Text: KBAN 261452Z AUTO 00000KT CLR M06/M09 A3053 RMK AO2 SLP351 T10561089 53006 FZRANO $
Loading
Personal Weather Stations






























Interactive Weather Map New forecast layout! Learn more

10-Day Weather Forecast

Advertisements
Track Severe Weather on mobile